Time;durP1;ratioP1;P1;durP2;ratioP2;P2;SDS_P1;SDS_P2;PMS_P1;PMS_P2;Temp;Humidity;BMP_temperature;BMP_pressure;BME280_temperature;BME280_humidity;BME280_pressure;Samples;Min_cycle;Max_cycle;Signal;HPM_P1;HPM_P2
2024/01/18 00:02:22;;;;;;;16.13;10.90;;;;;;;-1.42;100.00;99353.81;5089673;28;20028;-38
2024/01/18 00:04:48;;;;;;;11.88;9.55;;;;;;;-1.31;100.00;99369.22;5089596;28;20028;-38
2024/01/18 00:07:13;;;;;;;14.88;10.23;;;;;;;-1.40;100.00;99357.09;5081709;28;20036;-38
2024/01/18 00:09:38;;;;;;;13.40;10.63;;;;;;;-1.31;100.00;99369.22;5076360;28;20107;-38
2024/01/18 00:12:04;;;;;;;13.03;10.30;;;;;;;-1.31;100.00;99369.22;5076124;28;20385;-38
2024/01/18 00:14:30;;;;;;;15.70;10.52;;;;;;;-1.29;100.00;99377.00;5075597;28;20036;-38
2024/01/18 00:16:55;;;;;;;11.33;9.23;;;;;;;-1.30;100.00;99372.69;5075701;28;20052;-38
2024/01/18 00:19:20;;;;;;;11.53;9.13;;;;;;;-1.25;100.00;99388.03;5075938;28;20020;-38
2024/01/18 00:21:46;;;;;;;13.90;10.53;;;;;;;-1.25;100.00;99401.31;5075974;28;20035;-38
2024/01/18 00:24:11;;;;;;;16.37;10.80;;;;;;;-1.28;100.00;99401.69;5075614;28;20060;-38
2024/01/18 00:26:36;;;;;;;16.10;11.60;;;;;;;-1.26;100.00;99402.31;5075889;28;20229;-38
2024/01/18 00:29:02;;;;;;;12.33;9.77;;;;;;;-1.24;100.00;99403.75;5075505;28;20069;-38
2024/01/18 00:31:27;;;;;;;12.83;10.37;;;;;;;-1.27;100.00;99408.63;5075728;28;20372;-38
2024/01/18 00:33:58;;;;;;;12.90;9.87;;;;;;;-1.37;100.00;99377.09;5075983;28;20104;-38
2024/01/18 00:36:24;;;;;;;15.30;9.60;;;;;;;-1.27;100.00;99398.81;5076345;28;20361;-38
2024/01/18 00:38:49;;;;;;;;;;;;;;;-1.19;100.00;99404.00;5076242;28;20036;-38
2024/01/18 00:41:14;;;;;;;14.93;9.87;;;;;;;-1.33;100.00;99392.44;5075834;28;19908;-38
2024/01/18 00:43:40;;;;;;;11.93;10.67;;;;;;;-1.35;100.00;99389.19;5075436;28;20096;-38
2024/01/18 00:46:05;;;;;;;13.90;10.80;;;;;;;-1.28;100.00;99412.28;5075751;28;20028;-38
2024/01/18 00:48:31;;;;;;;15.63;10.97;;;;;;;-1.35;100.00;99406.94;5075333;28;20031;-38
2024/01/18 00:50:56;;;;;;;14.60;9.50;;;;;;;-1.25;100.00;99411.91;5075609;28;20024;-38
2024/01/18 00:53:22;;;;;;;13.27;11.70;;;;;;;-1.43;100.00;99393.78;5074959;28;20530;-38
2024/01/18 00:55:47;;;;;;;15.27;11.37;;;;;;;-1.30;100.00;99415.13;5075855;28;20389;-38
2024/01/18 00:58:13;;;;;;;12.73;10.47;;;;;;;-1.34;100.00;99411.22;5074998;28;20067;-38
2024/01/18 01:00:39;;;;;;;;;;;;;;;-1.27;100.00;99414.75;5076450;28;20523;-38
2024/01/18 01:03:04;;;;;;;12.90;10.47;;;;;;;-1.31;100.00;99427.56;5075152;28;20015;-38
2024/01/18 01:05:29;;;;;;;13.07;10.77;;;;;;;-1.34;100.00;99420.00;5075049;28;20064;-38
2024/01/18 01:07:55;;;;;;;11.40;9.40;;;;;;;-1.40;100.00;99419.94;5074977;28;20033;-38
2024/01/18 01:10:20;;;;;;;10.53;9.40;;;;;;;-1.31;100.00;99442.66;5074911;28;20467;-38
2024/01/18 01:12:47;;;;;;;12.77;10.13;;;;;;;-1.35;100.00;99438.75;5075450;28;20024;-38
2024/01/18 01:15:12;;;;;;;12.15;8.35;;;;;;;-1.33;100.00;99449.97;5074464;28;20029;-38
2024/01/18 01:17:37;;;;;;;11.40;9.00;;;;;;;-1.33;100.00;99452.63;5074341;28;20032;-38
2024/01/18 01:20:04;;;;;;;13.27;10.27;;;;;;;-1.34;100.00;99445.69;5073952;28;20039;-38
2024/01/18 01:22:29;;;;;;;12.85;10.10;;;;;;;-1.44;100.00;99430.09;5074891;28;20392;-38
2024/01/18 01:24:55;;;;;;;10.63;8.83;;;;;;;-1.39;100.00;99456.03;5074667;28;20032;-38
2024/01/18 01:27:20;;;;;;;13.37;10.70;;;;;;;-1.44;100.00;99445.19;5075398;28;20372;-38
2024/01/18 01:29:45;;;;;;;12.33;10.37;;;;;;;-1.48;100.00;99452.69;5074859;28;20020;-38
2024/01/18 01:32:11;;;;;;;10.90;8.90;;;;;;;-1.43;100.00;99454.75;5074516;28;20081;-38
2024/01/18 01:34:36;;;;;;;10.57;8.93;;;;;;;-1.44;100.00;99451.28;5074354;28;20107;-38
2024/01/18 01:37:01;;;;;;;11.73;9.43;;;;;;;-1.65;100.00;99419.47;5074722;28;20261;-38
2024/01/18 01:39:28;;;;;;;15.87;11.03;;;;;;;-1.49;100.00;99451.03;5074338;28;20021;-38
2024/01/18 01:41:53;;;;;;;11.52;9.57;;;;;;;-1.49;100.00;99458.16;5075074;28;20024;-38
2024/01/18 01:44:18;;;;;;;18.67;11.23;;;;;;;-1.51;100.00;99463.66;5074523;28;20430;-38
2024/01/18 01:46:44;;;;;;;11.53;9.53;;;;;;;-1.49;100.00;99466.94;5074292;28;20024;-38
2024/01/18 01:49:10;;;;;;;10.53;8.93;;;;;;;-1.50;100.00;99467.97;5074437;28;20044;-38
2024/01/18 01:51:48;;;;;;;10.57;9.15;;;;;;;-1.50;100.00;99462.66;5074741;28;20073;-38
2024/01/18 01:54:20;;;;;;;11.10;8.50;;;;;;;-1.48;100.00;99475.72;5074866;28;20028;-38
2024/01/18 01:56:49;;;;;;;13.35;10.82;;;;;;;-1.54;100.00;99479.13;5073363;28;20060;-38
2024/01/18 01:59:16;;;;;;;13.93;8.98;;;;;;;-1.50;100.00;99475.09;5074241;28;20112;-38
2024/01/18 02:01:44;;;;;;;13.88;10.30;;;;;;;-1.62;100.00;99466.78;5074241;28;20060;-38
2024/01/18 02:04:10;;;;;;;16.13;12.88;;;;;;;-1.62;100.00;99464.13;5073834;28;20115;-38
2024/01/18 02:06:37;;;;;;;13.90;11.93;;;;;;;-1.59;100.00;99472.53;5073882;28;20094;-38
2024/01/18 02:09:03;;;;;;;15.57;11.93;;;;;;;-1.61;100.00;99476.38;5073812;28;20388;-38
2024/01/18 02:11:30;;;;;;;11.45;9.57;;;;;;;-1.59;100.00;99471.72;5073583;28;20439;-38
2024/01/18 02:13:55;;;;;;;12.30;10.05;;;;;;;-1.59;100.00;99477.84;5073671;28;20369;-38
2024/01/18 02:16:21;;;;;;;16.23;10.77;;;;;;;-1.59;100.00;99480.50;5073974;28;20040;-38
2024/01/18 02:18:47;;;;;;;15.37;10.80;;;;;;;-1.60;100.00;99488.66;5073615;28;20134;-38
2024/01/18 02:21:13;;;;;;;13.25;10.43;;;;;;;-1.57;100.00;99482.94;5073682;28;20031;-38
2024/01/18 02:23:42;;;;;;;14.55;10.00;;;;;;;-1.58;100.00;99483.97;5073604;28;20025;-38
2024/01/18 02:26:08;;;;;;;15.05;10.90;;;;;;;-1.58;100.00;99483.97;5073835;28;20032;-38
2024/01/18 02:28:33;;;;;;;12.50;9.82;;;;;;;-1.65;100.00;99469.81;5073535;28;20029;-38
2024/01/18 02:30:58;;;;;;;13.53;10.53;;;;;;;-1.66;100.00;99479.59;5073862;28;20476;-38
2024/01/18 02:33:24;;;;;;;13.63;11.00;;;;;;;-1.66;100.00;99473.47;5073951;28;20276;-38
2024/01/18 02:35:50;;;;;;;12.10;10.03;;;;;;;-1.67;100.00;99471.81;5073391;28;20035;-38
2024/01/18 02:38:15;;;;;;;11.82;9.57;;;;;;;-1.66;100.00;99482.25;5073052;28;20055;-38
2024/01/18 02:40:41;;;;;;;10.27;9.17;;;;;;;-1.64;100.00;99479.41;5073472;28;20066;-38
2024/01/18 02:43:06;;;;;;;15.18;10.52;;;;;;;-1.68;100.00;99481.59;5073930;28;20024;-38
2024/01/18 02:45:32;;;;;;;12.07;9.83;;;;;;;-1.79;100.00;99462.72;5073679;28;20028;-38
2024/01/18 02:47:57;;;;;;;13.02;11.27;;;;;;;-1.71;100.00;99484.63;5074128;28;20028;-38
2024/01/18 02:50:23;;;;;;;12.93;10.17;;;;;;;-1.73;100.00;99481.34;5073004;28;20020;-38
2024/01/18 02:52:48;;;;;;;13.07;10.23;;;;;;;-1.67;100.00;99493.03;5073318;28;20071;-38
2024/01/18 02:55:14;;;;;;;14.77;10.43;;;;;;;-1.69;100.00;99495.88;5073166;28;20021;-38
2024/01/18 02:57:41;;;;;;;12.97;10.73;;;;;;;-1.70;100.00;99494.22;5073623;28;20052;-38
2024/01/18 03:00:07;;;;;;;14.85;11.77;;;;;;;-1.70;100.00;99504.00;5073518;28;20652;-42
2024/01/18 03:02:32;;;;;;;15.10;11.18;;;;;;;-1.76;100.00;99486.19;5073212;28;20024;-38
2024/01/18 03:04:57;;;;;;;12.70;10.70;;;;;;;-1.79;100.00;99479.44;5073667;28;20040;-38
2024/01/18 03:07:23;;;;;;;15.63;10.17;;;;;;;-1.70;100.00;99494.22;5073430;28;20025;-38
2024/01/18 03:09:48;;;;;;;14.10;10.87;;;;;;;-1.70;100.00;99490.75;5072880;28;20035;-38
2024/01/18 03:12:13;;;;;;;14.13;10.23;;;;;;;-1.72;100.00;99504.19;5073625;28;20449;-38
2024/01/18 03:14:38;;;;;;;12.73;10.90;;;;;;;-1.73;100.00;99497.25;5072604;28;20445;-38
2024/01/18 03:17:04;;;;;;;11.33;10.13;;;;;;;-1.80;100.00;99482.28;5073425;28;20024;-38
2024/01/18 03:19:29;;;;;;;13.37;9.93;;;;;;;-1.73;100.00;99499.06;5073320;28;20060;-38
2024/01/18 03:21:54;;;;;;;12.50;10.23;;;;;;;-1.87;100.00;99488.28;5073047;28;20029;-38
2024/01/18 03:24:20;;;;;;;12.43;9.07;;;;;;;-1.92;100.00;99480.06;5073011;28;20025;-38
2024/01/18 03:26:45;;;;;;;9.97;8.63;;;;;;;-1.81;100.00;99502.63;5073043;28;20040;-38
2024/01/18 03:29:10;;;;;;;12.13;9.47;;;;;;;-1.87;100.00;99509.50;5073675;28;20033;-38
2024/01/18 03:31:36;;;;;;;11.43;9.47;;;;;;;-2.10;100.00;99476.97;5072833;28;20039;-38
2024/01/18 03:34:01;;;;;;;12.67;9.80;;;;;;;-1.93;100.00;99520.00;5072682;28;20056;-38
2024/01/18 03:36:26;;;;;;;14.07;10.70;;;;;;;-1.96;100.00;99515.88;5072852;28;20025;-38
2024/01/18 03:38:52;;;;;;;11.30;8.67;;;;;;;-1.93;100.00;99518.19;5072767;28;20025;-38
2024/01/18 03:41:17;;;;;;;12.48;9.60;;;;;;;-1.98;100.00;99520.56;5072823;28;20532;-38
2024/01/18 03:43:43;;;;;;;11.80;10.02;;;;;;;-2.08;100.00;99506.75;5077056;28;20082;-38
2024/01/18 03:46:14;;;;;;;14.07;9.87;;;;;;;-2.10;100.00;99514.88;5077238;28;20040;-38
2024/01/18 03:48:40;;;;;;;11.68;9.95;;;;;;;-2.09;100.00;99515.72;5076270;28;20115;-38
2024/01/18 03:51:06;;;;;;;16.58;10.50;;;;;;;-2.11;100.00;99528.28;5076437;28;20063;-38
2024/01/18 03:53:31;;;;;;;11.90;8.90;;;;;;;-2.12;100.00;99529.31;5076309;28;20078;-38
2024/01/18 03:55:57;;;;;;;13.17;9.63;;;;;;;-2.25;100.00;99529.09;5076303;28;20032;-38
2024/01/18 03:58:22;;;;;;;10.60;8.27;;;;;;;-2.17;100.00;99535.16;5076731;28;20051;-38
2024/01/18 04:00:47;;;;;;;11.63;9.67;;;;;;;-2.16;100.00;99536.78;5076539;28;20127;-38
2024/01/18 04:03:13;;;;;;;10.87;8.60;;;;;;;-2.16;100.00;99536.78;5076195;28;20040;-38
2024/01/18 04:05:38;;;;;;;14.43;9.68;;;;;;;-2.28;100.00;99529.47;5076445;28;20025;-38
2024/01/18 04:08:04;;;;;;;8.90;7.97;;;;;;;-2.25;100.00;99547.63;5076109;28;20107;-38
2024/01/18 04:10:29;;;;;;;13.10;8.15;;;;;;;-2.24;100.00;99544.81;5076083;28;20032;-38
2024/01/18 04:12:55;;;;;;;8.30;7.50;;;;;;;-2.34;100.00;99523.06;5076697;28;20111;-38
2024/01/18 04:15:20;;;;;;;10.27;8.57;;;;;;;-2.43;100.00;99532.91;5075975;28;20028;-38
2024/01/18 04:17:45;;;;;;;10.17;8.63;;;;;;;-2.38;100.00;99541.13;5075961;28;20025;-38
2024/01/18 04:20:15;;;;;;;9.57;7.90;;;;;;;-2.39;100.00;99549.25;5075695;28;20036;-38
2024/01/18 04:22:40;;;;;;;11.32;8.07;;;;;;;-2.56;100.00;99545.91;5076129;28;20024;-38
2024/01/18 04:25:06;;;;;;;11.43;8.03;;;;;;;-2.55;100.00;99552.03;5075884;28;20029;-38
2024/01/18 04:27:31;;;;;;;11.98;9.13;;;;;;;-2.60;100.00;99545.44;5076373;28;20024;-38
2024/01/18 04:29:57;;;;;;;11.43;8.27;;;;;;;-2.60;100.00;99555.22;5075423;28;20507;-38
2024/01/18 04:32:22;;;;;;;9.30;7.03;;;;;;;-2.62;100.00;99552.75;5076304;28;20399;-38
2024/01/18 04:34:47;;;;;;;9.57;8.30;;;;;;;-2.66;100.00;99569.16;5075514;28;20450;-38
2024/01/18 04:37:13;;;;;;;13.23;8.47;;;;;;;-2.72;100.00;99570.69;5076168;28;20107;-38
2024/01/18 04:39:38;;;;;;;13.03;8.53;;;;;;;-2.82;100.00;99561.34;5075574;28;20063;-38
2024/01/18 04:42:04;;;;;;;10.40;6.67;;;;;;;-2.81;100.00;99573.56;5075335;28;20434;-38
2024/01/18 04:44:29;;;;;;;10.07;7.95;;;;;;;-2.81;100.00;99582.31;5075749;28;20032;-38
2024/01/18 04:46:54;;;;;;;10.70;8.40;;;;;;;-2.82;100.00;99583.34;5075276;28;20036;-38
2024/01/18 04:49:20;;;;;;;12.13;8.23;;;;;;;-3.03;100.00;99557.47;5075664;28;20036;-38
2024/01/18 04:51:45;;;;;;;12.87;7.90;;;;;;;-2.89;100.00;99585.00;5075708;28;20028;-38
2024/01/18 04:54:10;;;;;;;12.90;8.50;;;;;;;-2.92;100.00;99588.84;5075162;28;20047;-38
2024/01/18 04:56:37;;;;;;;10.93;7.47;;;;;;;-2.93;100.00;99589.84;5075277;28;20024;-38
2024/01/18 04:59:03;;;;;;;10.77;8.43;;;;;;;-2.99;100.00;99595.81;5074902;28;20040;-38
2024/01/18 05:01:28;;;;;;;9.82;8.30;;;;;;;-3.06;100.00;99596.69;5075149;28;20366;-38
2024/01/18 05:03:54;;;;;;;9.90;7.60;;;;;;;-3.08;100.00;99607.44;5075845;28;20017;-38
2024/01/18 05:06:19;;;;;;;10.43;7.43;;;;;;;-3.17;100.00;99601.38;5075362;28;20524;-38
2024/01/18 05:08:45;;;;;;;10.07;7.70;;;;;;;-3.15;100.00;99604.66;5074958;28;20029;-38
2024/01/18 05:11:10;;;;;;;9.32;7.47;;;;;;;-3.12;100.00;99614.09;5075016;28;20115;-38
2024/01/18 05:13:36;;;;;;;10.43;8.07;;;;;;;-3.20;100.00;99612.28;5074956;28;20567;-38
2024/01/18 05:16:01;;;;;;;8.90;7.13;;;;;;;-3.20;100.00;99607.00;5075005;28;20031;-38
2024/01/18 05:18:27;;;;;;;9.23;6.82;;;;;;;-3.18;100.00;99614.75;5074803;28;20024;-38
2024/01/18 05:20:52;;;;;;;7.93;6.30;;;;;;;-3.23;100.00;99601.22;5075011;28;20021;-38
2024/01/18 05:23:18;;;;;;;13.02;8.23;;;;;;;-3.26;100.00;99614.81;5074689;28;20033;-38
2024/01/18 05:25:43;;;;;;;11.20;7.17;;;;;;;-3.29;100.00;99617.78;5074419;28;20028;-38
2024/01/18 05:28:09;;;;;;;10.95;7.60;;;;;;;-3.36;100.00;99617.66;5074307;28;20036;-38
2024/01/18 05:30:34;;;;;;;13.60;8.53;;;;;;;-3.45;100.00;99611.56;5074646;28;20078;-38
2024/01/18 05:32:59;;;;;;;10.00;7.23;;;;;;;-3.50;100.00;99619.19;5074281;28;20108;-38
2024/01/18 05:35:25;;;;;;;11.00;7.80;;;;;;;-3.45;100.00;99619.50;5074154;28;20083;-38
2024/01/18 05:37:50;;;;;;;7.67;6.80;;;;;;;-3.39;100.00;99628.56;5074764;28;20036;-38
2024/01/18 05:40:16;;;;;;;10.15;7.72;;;;;;;-3.53;100.00;99608.94;5074301;28;20054;-38
2024/01/18 05:42:41;;;;;;;9.38;7.60;;;;;;;-3.40;100.00;99640.13;5074791;28;20024;-38
2024/01/18 05:45:07;;;;;;;10.03;7.63;;;;;;;-3.45;100.00;99631.91;5074014;28;20036;-38
2024/01/18 05:47:32;;;;;;;10.55;6.38;;;;;;;-3.35;100.00;99644.91;5075336;28;20361;-38
2024/01/18 05:49:58;;;;;;;10.23;7.50;;;;;;;-3.45;100.00;99645.94;5074277;28;20028;-38
2024/01/18 05:52:23;;;;;;;10.10;7.47;;;;;;;-3.52;100.00;99633.56;5074340;28;20016;-38
2024/01/18 05:54:49;;;;;;;11.95;7.30;;;;;;;-3.46;100.00;99648.75;5074343;28;20400;-38
2024/01/18 05:57:14;;;;;;;10.10;8.02;;;;;;;-3.54;100.00;99657.50;5073324;28;20500;-38
2024/01/18 05:59:40;;;;;;;10.93;7.57;;;;;;;-3.56;100.00;99670.09;5074390;28;20029;-38
2024/01/18 06:02:05;;;;;;;10.43;8.17;;;;;;;-3.56;100.00;99664.81;5073696;28;20031;-38
2024/01/18 06:04:30;;;;;;;10.33;6.90;;;;;;;-3.57;100.00;99664.94;5073105;28;20056;-38
2024/01/18 06:06:57;;;;;;;10.23;7.13;;;;;;;-3.64;100.00;99660.34;5073676;28;20036;-39
2024/01/18 06:09:22;;;;;;;9.98;7.60;;;;;;;-3.58;100.00;99672.06;5073499;28;20039;-39
2024/01/18 06:11:48;;;;;;;9.40;6.37;;;;;;;-3.56;100.00;99669.22;5073546;28;20119;-39
2024/01/18 06:14:15;;;;;;;8.82;6.43;;;;;;;-3.49;100.00;99678.16;5074408;28;20267;-39
2024/01/18 06:16:41;;;;;;;8.98;6.28;;;;;;;-3.50;100.00;99677.34;5073603;28;20029;-39
2024/01/18 06:19:06;;;;;;;9.20;6.10;;;;;;;-3.55;100.00;99684.13;5073706;28;20485;-39
2024/01/18 06:21:32;;;;;;;8.63;6.47;;;;;;;-3.53;100.00;99692.69;5073387;28;20031;-39
2024/01/18 06:23:57;;;;;;;9.30;5.97;;;;;;;-3.51;100.00;99688.91;5073873;28;20032;-39
2024/01/18 06:26:22;;;;;;;8.00;6.23;;;;;;;-3.50;100.00;99701.13;5074171;28;20103;-39
2024/01/18 06:28:48;;;;;;;7.77;5.83;;;;;;;-3.49;100.00;99694.00;5073552;28;20024;-39
2024/01/18 06:31:14;;;;;;;7.33;5.90;;;;;;;-3.54;100.00;99706.91;5073799;28;20381;-39
2024/01/18 06:33:39;;;;;;;6.43;5.55;;;;;;;-3.61;100.00;99714.69;5073502;28;20081;-39
2024/01/18 06:36:07;;;;;;;9.77;6.30;;;;;;;-3.71;100.00;99712.22;5074209;28;20060;-39
2024/01/18 06:38:33;;;;;;;10.25;6.35;;;;;;;-3.61;100.00;99735.81;5073375;28;20021;-39
2024/01/18 06:40:59;;;;;;;10.17;6.57;;;;;;;-3.68;100.00;99735.66;5073809;28;20035;-39
2024/01/18 06:43:25;;;;;;;12.57;6.65;;;;;;;-3.89;100.00;99706.28;5073353;28;20115;-39
2024/01/18 06:45:54;;;;;;;11.48;6.82;;;;;;;-3.75;100.00;99742.59;5073380;28;20077;-39
2024/01/18 06:48:23;;;;;;;11.85;7.00;;;;;;;-3.82;100.00;99741.59;5073256;28;20055;-39
2024/01/18 06:50:49;;;;;;;19.27;8.55;;;;;;;-3.88;100.00;99742.25;5073332;28;20111;-39
2024/01/18 06:53:14;;;;;;;13.32;8.00;;;;;;;-3.89;100.00;99746.72;5073329;28;20051;-39
2024/01/18 06:55:40;;;;;;;11.23;7.10;;;;;;;-3.92;100.00;99739.13;5073192;28;20021;-39
2024/01/18 06:58:05;;;;;;;16.90;8.73;;;;;;;-3.92;100.00;99748.84;5074128;28;20482;-39
2024/01/18 07:00:32;;;;;;;14.15;9.07;;;;;;;-4.00;100.00;99747.06;5073283;28;20038;-39
2024/01/18 07:02:57;;;;;;;14.13;8.68;;;;;;;-4.02;100.00;99743.72;5073213;28;20024;-39
2024/01/18 07:05:23;;;;;;;18.67;10.23;;;;;;;-4.05;100.00;99753.78;5072040;28;20121;-39
2024/01/18 07:07:48;;;;;;;23.13;12.30;;;;;;;-4.08;100.00;99754.97;5072926;28;20039;-39
2024/01/18 07:10:13;;;;;;;18.57;10.10;;;;;;;-4.18;100.00;99765.66;5073501;28;20033;-39
2024/01/18 07:12:39;;;;;;;16.97;8.20;;;;;;;-4.17;100.00;99762.03;5073146;28;20073;-39
2024/01/18 07:15:07;;;;;;;17.57;9.33;;;;;;;-4.11;100.00;99760.56;5073056;28;20035;-39
2024/01/18 07:17:32;;;;;;;18.23;10.13;;;;;;;-4.19;100.00;99771.94;5074931;28;20485;-39
2024/01/18 07:19:58;;;;;;;16.67;10.02;;;;;;;-4.27;100.00;99776.38;5077311;28;20111;-39
2024/01/18 07:22:25;;;;;;;14.50;7.57;;;;;;;-4.30;100.00;99781.97;5077350;28;20469;-39
2024/01/18 07:24:51;;;;;;;15.48;8.18;;;;;;;-4.29;100.00;99788.91;5076912;28;20449;-39
2024/01/18 07:27:16;;;;;;;14.73;7.97;;;;;;;-4.36;100.00;99778.16;5076937;28;20056;-39
2024/01/18 07:29:42;;;;;;;17.30;8.57;;;;;;;-4.35;100.00;99793.00;5077065;28;20521;-39
2024/01/18 07:32:08;;;;;;;12.65;7.30;;;;;;;-4.40;100.00;99788.19;5076893;28;20028;-39
2024/01/18 07:34:34;;;;;;;14.00;7.53;;;;;;;-4.29;100.00;99799.47;5076604;28;20025;-39
2024/01/18 07:36:59;;;;;;;13.48;8.15;;;;;;;-4.33;100.00;99800.78;5077248;28;20286;-39
2024/01/18 07:39:25;;;;;;;15.43;8.18;;;;;;;-4.35;100.00;99798.28;5076670;28;20024;-39
2024/01/18 07:41:50;;;;;;;13.27;7.90;;;;;;;-4.22;100.00;99813.66;5076981;28;20452;-39
2024/01/18 07:44:15;;;;;;;11.20;6.37;;;;;;;-4.21;100.00;99802.13;5077436;28;20031;-39
2024/01/18 07:46:41;;;;;;;9.30;6.43;;;;;;;-4.12;100.00;99811.72;5076614;28;20044;-39
2024/01/18 07:49:06;;;;;;;11.47;6.63;;;;;;;-4.19;100.00;99811.53;5076545;28;20074;-39
2024/01/18 07:51:31;;;;;;;7.93;5.60;;;;;;;-4.17;100.00;99819.28;5076493;28;20282;-39
2024/01/18 07:53:57;;;;;;;10.87;6.33;;;;;;;-4.10;100.00;99830.03;5076444;28;20025;-39
2024/01/18 07:56:22;;;;;;;8.80;6.17;;;;;;;-4.08;100.00;99838.63;5076133;28;20096;-37
2024/01/18 07:58:47;;;;;;;13.57;8.03;;;;;;;-4.08;100.00;99831.53;5076682;28;20072;-39
2024/01/18 08:01:16;;;;;;;11.30;6.53;;;;;;;-4.06;100.00;99842.75;5076291;28;20021;-39
2024/01/18 08:03:42;;;;;;;7.72;5.63;;;;;;;-4.07;100.00;99841.09;5075906;28;20071;-39
2024/01/18 08:06:08;;;;;;;8.60;6.13;;;;;;;-4.05;100.00;99860.28;5076810;28;20064;-39
2024/01/18 08:08:33;;;;;;;8.85;6.15;;;;;;;-4.00;100.00;99857.97;5076115;28;20034;-39
2024/01/18 08:10:58;;;;;;;9.00;5.78;;;;;;;-4.13;100.00;99836.47;5076165;28;20082;-39
2024/01/18 08:13:24;;;;;;;16.70;6.90;;;;;;;-3.97;100.00;99854.16;5076066;28;20504;-39
2024/01/18 08:15:50;;;;;;;7.97;5.83;;;;;;;-3.99;100.00;99859.63;5076750;28;20021;-39
2024/01/18 08:18:17;;;;;;;7.70;5.32;;;;;;;-4.02;100.00;99845.91;5076203;28;20035;-39
2024/01/18 08:20:43;;;;;;;8.05;6.28;;;;;;;-3.91;100.00;99872.81;5076524;28;20425;-39
2024/01/18 08:23:08;;;;;;;9.60;6.85;;;;;;;-3.89;100.00;99872.69;5076796;28;20035;-39
2024/01/18 08:25:33;;;;;;;11.27;7.33;;;;;;;-3.90;100.00;99868.41;5076093;28;20048;-39
2024/01/18 08:27:59;;;;;;;8.95;6.40;;;;;;;-3.75;100.00;99882.63;5075371;28;20028;-39
2024/01/18 08:30:25;;;;;;;11.23;6.73;;;;;;;-3.67;100.00;99876.50;5076074;28;20033;-39
2024/01/18 08:32:50;;;;;;;10.23;7.13;;;;;;;-3.63;100.00;99885.78;5076606;28;20039;-39
2024/01/18 08:35:16;;;;;;;9.23;6.87;;;;;;;-3.58;100.00;99888.75;5075093;28;20420;-39
2024/01/18 08:37:41;;;;;;;7.73;6.80;;;;;;;-3.49;100.00;99897.53;5075637;28;20025;-39
2024/01/18 08:40:08;;;;;;;8.63;6.30;;;;;;;-3.51;100.00;99895.06;5075951;28;20286;-39
2024/01/18 08:42:34;;;;;;;10.05;6.15;;;;;;;-3.45;100.00;99901.50;5076050;28;20031;-39
2024/01/18 08:45:00;;;;;;;;;;;;;;;-3.34;100.00;99905.63;5075905;28;20036;-39
2024/01/18 08:47:26;;;;;;;18.05;11.73;;;;;;;-3.34;100.00;99901.16;5075725;28;20318;-39
2024/01/18 08:49:51;;;;;;;9.20;6.93;;;;;;;-3.29;100.00;99908.63;5075622;28;20024;-39
2024/01/18 08:52:17;;;;;;;9.43;6.53;;;;;;;-3.25;100.00;99916.06;5075923;28;20036;-39
2024/01/18 08:54:43;;;;;;;8.47;6.20;;;;;;;-3.23;100.00;99910.59;5075433;28;20275;-39
2024/01/18 08:57:08;;;;;;;9.48;6.30;;;;;;;-3.12;100.00;99928.78;5075367;28;20577;-39
2024/01/18 08:59:36;;;;;;;7.37;5.97;;;;;;;-3.17;100.00;99923.19;5075546;28;20031;-39
2024/01/18 09:02:02;;;;;;;7.57;5.90;;;;;;;-3.09;100.00;99924.97;5075771;28;20099;-39
2024/01/18 09:04:27;;;;;;;8.80;5.75;;;;;;;-2.95;100.00;99934.91;5075154;28;20455;-39
2024/01/18 09:06:53;;;;;;;10.55;5.88;;;;;;;-2.82;100.00;99937.06;5076214;28;20107;-39
2024/01/18 09:09:18;;;;;;;9.50;5.65;;;;;;;-2.69;100.00;99942.66;5075896;28;20519;-39
2024/01/18 09:11:44;;;;;;;6.70;6.03;;;;;;;-2.80;100.00;99913.88;5074753;28;20111;-39
2024/01/18 09:14:09;;;;;;;6.67;5.47;;;;;;;-2.57;100.00;99949.25;5075156;28;20028;-39
2024/01/18 09:16:34;;;;;;;7.07;4.93;;;;;;;-2.48;100.00;99952.72;5074691;28;20487;-39
2024/01/18 09:19:00;;;;;;;8.60;5.27;;;;;;;-2.45;100.00;99961.13;5075217;28;20028;-39
2024/01/18 09:21:26;;;;;;;10.33;4.77;;;;;;;-2.42;100.00;99963.47;5075650;28;20031;-39
2024/01/18 09:23:51;;;;;;;7.05;4.28;;;;;;;-2.30;100.00;99971.88;5075024;28;20035;-39
2024/01/18 09:26:17;;;;;;;6.60;4.63;;;;;;;-2.22;100.00;99966.56;5074765;28;20060;-39
2024/01/18 09:28:43;;;;;;;6.68;3.90;;;;;;;-2.12;100.00;99972.50;5074367;28;20027;-39
2024/01/18 09:31:09;;;;;;;6.90;4.72;;;;;;;-2.03;100.00;99983.91;5075136;28;20388;-39
2024/01/18 09:33:37;;;;;;;5.97;4.03;;;;;;;-2.05;100.00;99977.91;5074580;28;20028;-39
2024/01/18 09:36:04;;;;;;;8.38;4.40;;;;;;;-1.92;100.00;99988.00;5075253;28;20038;-39
2024/01/18 09:38:29;;;;;;;5.88;4.50;;;;;;;-1.90;100.00;99992.13;5074425;28;20024;-39
2024/01/18 09:41:03;;;;;;;5.57;4.13;;;;;;;-1.85;100.00;100003.06;5073365;28;20411;-39
2024/01/18 09:43:34;;;;;;;4.95;3.88;;;;;;;-1.83;100.00;99995.75;5074695;28;20071;-39
2024/01/18 09:45:59;;;;;;;7.15;4.03;;;;;;;-1.71;100.00;100012.09;5074603;28;20078;-39
2024/01/18 09:48:25;;;;;;;5.72;3.63;;;;;;;-1.62;100.00;100018.19;5074250;28;20388;-39
2024/01/18 09:50:52;;;;;;;;;;;;;;;-1.48;100.00;100025.41;5075466;28;20028;-39
2024/01/18 09:53:17;;;;;;;10.50;4.20;;;;;;;-1.48;100.00;100029.91;5074155;28;20011;-39
2024/01/18 09:55:46;;;;;;;6.20;3.90;;;;;;;-1.39;100.00;100034.16;5073739;28;20116;-39
2024/01/18 09:58:12;;;;;;;5.43;3.95;;;;;;;-1.37;100.00;100037.47;5074979;28;20376;-39
2024/01/18 10:00:44;;;;;;;5.95;3.83;;;;;;;-1.25;100.00;100049.34;5073601;28;20357;-39
2024/01/18 10:03:10;;;;;;;7.03;3.75;;;;;;;-1.24;100.00;100053.66;5074011;28;20111;-39
2024/01/18 10:05:36;;;;;;;7.53;3.55;;;;;;;-1.16;100.00;100060.75;5073899;28;20120;-39
2024/01/18 10:08:03;;;;;;;6.43;3.83;;;;;;;-1.06;100.00;100056.06;5074483;28;20024;-39
2024/01/18 10:10:29;;;;;;;5.50;3.80;;;;;;;-1.03;100.00;100055.69;5073821;28;20028;-39
2024/01/18 10:12:54;;;;;;;5.70;3.72;;;;;;;-0.88;100.00;100071.69;5074138;28;20419;-39
2024/01/18 10:15:33;;;;;;;4.70;3.53;;;;;;;-0.85;100.00;100072.16;5073696;28;20439;-39
2024/01/18 10:18:03;;;;;;;4.25;3.33;;;;;;;-0.82;100.00;100081.63;5074309;28;20028;-39
2024/01/18 10:20:29;;;;;;;5.30;3.30;;;;;;;-0.81;100.00;100084.09;5074153;28;20442;-39
2024/01/18 10:22:58;;;;;;;7.30;3.65;;;;;;;-0.74;100.00;100081.56;5073961;28;20029;-39
2024/01/18 10:25:25;;;;;;;5.65;3.38;;;;;;;-0.64;100.00;100083.97;5073283;28;20028;-39
2024/01/18 10:27:54;;;;;;;7.18;4.10;;;;;;;-0.57;100.00;100092.91;5073852;28;20024;-39
2024/01/18 10:30:21;;;;;;;4.88;3.15;;;;;;;-0.53;100.00;100084.41;5073199;28;20583;-39
2024/01/18 10:32:47;;;;;;;4.88;2.88;;;;;;;-0.46;100.00;100092.47;5073234;28;20028;-39
2024/01/18 10:35:25;;;;;;;4.25;2.40;;;;;;;-0.40;100.00;100099.72;5073387;28;20039;-39
2024/01/18 10:38:06;;;;;;;4.80;3.17;;;;;;;-0.30;100.00;100110.94;5073439;28;20020;-39
2024/01/18 10:40:38;;;;;;;4.47;2.45;;;;;;;-0.26;100.00;100114.06;5073397;28;20040;-39
2024/01/18 10:43:07;;;;;;;4.82;2.72;;;;;;;-0.24;100.00;100111.22;5073643;28;20053;-39
2024/01/18 10:45:33;;;;;;;5.20;2.80;;;;;;;-0.22;100.00;100101.25;5073317;28;20133;-39
2024/01/18 10:47:59;;;;;;;3.77;2.30;;;;;;;-0.14;100.00;100106.53;5073438;28;20087;-39
2024/01/18 10:50:26;;;;;;;3.45;2.25;;;;;;;-0.34;100.00;100069.81;5072801;28;20266;-39
2024/01/18 10:52:52;;;;;;;4.18;2.05;;;;;;;-0.06;100.00;100111.75;5073526;28;20380;-39
2024/01/18 10:55:17;;;;;;;;;;;;;;;0.07;100.00;100119.13;5073666;28;20035;-39
2024/01/18 10:57:43;;;;;;;4.25;1.77;;;;;;;0.07;100.00;100119.13;5073715;28;19916;-39
2024/01/18 11:00:09;;;;;;;4.43;2.23;;;;;;;0.05;100.00;100115.78;5073282;28;20028;-39
2024/01/18 11:02:41;;;;;;;4.00;2.33;;;;;;;0.18;100.00;100131.97;5073229;28;20254;-39
2024/01/18 11:05:09;;;;;;;4.80;2.28;;;;;;;0.20;100.00;100125.47;5073340;28;20104;-39
2024/01/18 11:07:37;;;;;;;3.70;2.08;;;;;;;0.30;100.00;100140.34;5072132;28;20384;-39
2024/01/18 11:10:05;;;;;;;4.35;1.90;;;;;;;0.45;100.00;100143.84;5073338;28;20029;-39
2024/01/18 11:12:32;;;;;;;5.45;1.90;;;;;;;0.50;100.00;100141.47;5073678;28;20373;-39
2024/01/18 11:14:57;;;;;;;3.78;1.90;;;;;;;0.52;100.00;100148.22;5072749;28;20032;-39